Time;durP1;ratioP1;P1;durP2;ratioP2;P2;SDS_P1;SDS_P2;PMS_P1;PMS_P2;Temp;Humidity;BMP_temperature;BMP_pressure;BME280_temperature;BME280_humidity;BME280_pressure;Samples;Min_cycle;Max_cycle;Signal;HPM_P1;HPM_P2
2022/06/29 00:00:25;;;;;;;14.60;6.50;;;;;;;15.88;48.28;100280.03;4833829;29;20065;-94
2022/06/29 00:05:47;;;;;;;18.67;6.55;;;;;;;15.59;48.33;100244.81;4862122;29;20054;-93
2022/06/29 00:08:53;;;;;;;22.83;6.75;;;;;;;16.27;48.43;100365.72;4816531;29;20076;-93
2022/06/29 00:11:44;;;;;;;26.88;6.50;;;;;;;16.25;48.14;100362.47;4816376;29;20151;-93
2022/06/29 00:14:10;;;;;;;22.48;6.10;;;;;;;16.00;48.52;100326.28;4813136;29;20038;-93
2022/06/29 00:16:36;;;;;;;19.10;6.22;;;;;;;16.04;47.72;100340.25;4829266;29;20219;-94
2022/06/29 00:19:03;;;;;;;23.40;6.32;;;;;;;15.54;47.75;100253.25;4828189;29;20162;-94
2022/06/29 00:21:30;;;;;;;;;;;;;;;16.21;47.82;100373.34;4813767;29;20148;-94
2022/06/29 00:24:08;;;;;;;23.67;6.78;;;;;;;15.61;48.19;100267.38;4815488;29;19952;-93
2022/06/29 00:26:34;;;;;;;16.15;5.93;;;;;;;15.81;47.78;100304.53;4841696;29;20056;-94
2022/06/29 00:29:00;;;;;;;15.67;6.17;;;;;;;15.91;47.84;100328.22;4834957;29;20697;-94
2022/06/29 00:31:27;;;;;;;23.40;5.88;;;;;;;15.54;47.99;100257.97;4832698;29;20042;-93
2022/06/29 00:33:55;;;;;;;20.02;6.88;;;;;;;15.58;48.04;100280.97;4849789;29;20044;-92
2022/06/29 00:36:22;;;;;;;17.05;6.10;;;;;;;15.86;48.59;100326.44;4831166;29;20077;-94
2022/06/29 00:38:48;;;;;;;14.57;6.00;;;;;;;15.64;48.36;100299.78;4832685;29;20085;-93
2022/06/29 00:42:13;;;;;;;21.80;7.22;;;;;;;16.06;49.03;100360.84;4831695;29;20037;-92
2022/06/29 00:44:46;;;;;;;20.90;5.90;;;;;;;15.92;48.82;100343.63;4831622;29;20057;-92
2022/06/29 00:47:12;;;;;;;24.48;6.50;;;;;;;15.89;48.70;100345.09;4831498;29;20042;-93
2022/06/29 00:49:38;;;;;;;15.23;5.90;;;;;;;15.55;49.02;100295.41;4831181;29;20540;-93
2022/06/29 00:52:08;;;;;;;27.50;6.63;;;;;;;15.69;48.97;100321.75;4846573;29;20807;-93
2022/06/29 00:54:51;;;;;;;19.33;5.90;;;;;;;15.50;49.29;100291.69;4831429;29;20097;-93
2022/06/29 00:57:23;;;;;;;15.52;6.78;;;;;;;15.63;49.18;100316.63;4831375;29;20038;-93
2022/06/29 00:59:52;;;;;;;18.75;6.70;;;;;;;15.64;49.19;100321.03;4856064;29;20114;-93
2022/06/29 01:02:43;;;;;;;19.10;6.70;;;;;;;15.76;48.95;100348.00;4849698;29;20061;-92
2022/06/29 01:05:10;;;;;;;30.67;6.97;;;;;;;15.39;49.39;100290.34;4836077;29;20578;-93
2022/06/29 01:07:40;;;;;;;21.33;7.38;;;;;;;15.59;49.10;100322.00;4868050;29;20044;-93
2022/06/29 01:10:07;;;;;;;16.52;6.53;;;;;;;15.55;49.75;100318.25;4837254;29;20127;-94
2022/06/29 01:12:34;;;;;;;32.22;7.90;;;;;;;15.55;49.57;100317.44;4851180;29;20057;-92
2022/06/29 01:15:00;;;;;;;28.75;7.03;;;;;;;15.48;49.52;100296.69;4836875;29;20718;-93
2022/06/29 01:17:28;;;;;;;25.73;6.80;;;;;;;15.58;49.56;100314.06;4836679;29;20053;-94
2022/06/29 01:19:55;;;;;;;28.65;6.90;;;;;;;15.36;49.96;100279.16;4851722;29;20365;-93
2022/06/29 01:22:27;;;;;;;16.80;6.43;;;;;;;15.57;50.14;100313.25;4849630;29;20065;-93
2022/06/29 01:24:53;;;;;;;36.50;7.30;;;;;;;15.48;50.34;100313.22;4845248;29;20144;-93
2022/06/29 01:27:41;;;;;;;27.50;7.38;;;;;;;15.32;50.31;100306.53;4829893;29;20136;-92
2022/06/29 01:30:08;;;;;;;31.17;6.47;;;;;;;15.46;50.85;100326.53;4790591;29;20111;-93
2022/06/29 01:33:03;;;;;;;20.63;6.72;;;;;;;15.05;51.29;100266.28;4770872;29;20058;-93
2022/06/29 01:36:29;;;;;;;26.45;7.10;;;;;;;15.64;50.75;100354.94;4772953;30;20481;-94
2022/06/29 01:38:55;;;;;;;73.47;8.02;;;;;;;14.86;51.25;100228.00;4770870;30;20060;-94
2022/06/29 01:41:21;;;;;;;29.87;6.77;;;;;;;15.21;50.62;100295.00;4756604;30;20050;-93
2022/06/29 01:44:36;;;;;;;26.42;6.75;;;;;;;15.70;50.82;100358.38;4767984;30;20107;-91
2022/06/29 01:47:29;;;;;;;23.13;7.13;;;;;;;15.63;51.67;100358.81;4789477;29;20051;-92
2022/06/29 01:50:11;;;;;;;34.15;7.10;;;;;;;15.58;52.88;100366.44;4774478;30;20047;-92
2022/06/29 01:52:37;;;;;;;22.40;6.85;;;;;;;15.48;53.52;100368.34;4789827;29;20074;-93
2022/06/29 01:55:10;;;;;;;23.02;7.20;;;;;;;15.27;52.91;100335.06;4776755;29;20051;-93
2022/06/29 01:57:36;;;;;;;31.83;8.05;;;;;;;15.25;52.58;100320.78;4776470;29;20054;-93
2022/06/29 02:00:09;;;;;;;16.30;6.17;;;;;;;14.92;51.12;100245.19;4777897;29;20088;-92
2022/06/29 02:02:36;;;;;;;19.73;6.57;;;;;;;15.33;50.91;100294.41;4793895;29;20115;-90
2022/06/29 02:05:03;;;;;;;24.00;7.80;;;;;;;15.37;51.77;100309.16;4775039;29;20128;-93
2022/06/29 02:07:54;;;;;;;17.42;6.38;;;;;;;15.86;51.07;100362.31;4828545;29;20154;-92
2022/06/29 02:10:33;;;;;;;28.80;7.45;;;;;;;15.76;50.62;100345.22;4827816;24;20156;-91
2022/06/29 02:13:31;;;;;;;44.92;8.68;;;;;;;15.96;50.88;100361.97;4844317;29;20045;-93
2022/06/29 02:16:20;;;;;;;19.25;7.82;;;;;;;15.72;50.79;100318.31;4813981;29;20652;-93
2022/06/29 02:19:12;;;;;;;27.95;6.95;;;;;;;16.07;50.62;100365.22;4796312;29;20046;-93
2022/06/29 02:21:41;;;;;;;54.42;7.50;;;;;;;15.52;50.33;100283.88;4835200;24;20050;-93
2022/06/29 02:24:07;;;;;;;22.50;6.88;;;;;;;15.45;50.29;100260.69;4840030;23;20841;-92
2022/06/29 02:26:34;;;;;;;42.90;7.40;;;;;;;15.83;50.47;100326.28;4828238;29;20046;-93
2022/06/29 02:29:00;;;;;;;20.52;6.95;;;;;;;16.09;51.37;100351.09;4828233;29;20141;-93
2022/06/29 02:37:14;;;;;;;17.02;6.40;;;;;;;15.68;51.54;100276.00;4842713;29;20053;-94
2022/06/29 02:39:45;;;;;;;17.48;5.93;;;;;;;15.93;51.07;100298.41;4811979;29;20041;-93
2022/06/29 02:42:13;;;;;;;18.92;5.85;;;;;;;16.18;50.69;100322.38;4829693;29;20078;-92
2022/06/29 02:44:48;;;;;;;22.13;5.88;;;;;;;16.12;51.70;100307.13;4814465;29;20046;-93
2022/06/29 02:47:21;;;;;;;16.85;5.60;;;;;;;16.19;51.30;100312.13;4829906;29;20437;-93
2022/06/29 02:49:48;;;;;;;12.60;5.55;;;;;;;16.14;51.25;100293.81;4829408;29;20049;-93
2022/06/29 02:52:28;;;;;;;14.87;5.50;;;;;;;16.49;51.52;100346.22;4829696;29;20048;-93
2022/06/29 02:55:13;;;;;;;27.15;6.53;;;;;;;16.39;51.32;100330.81;4841857;23;20072;-92
2022/06/29 02:58:06;;;;;;;65.80;7.75;;;;;;;16.59;52.41;100354.16;4810536;29;20192;-93
2022/06/29 03:00:44;;;;;;;33.03;6.35;;;;;;;16.40;52.24;100324.13;4814412;29;20147;-94
2022/06/29 03:03:37;;;;;;;16.48;5.50;;;;;;;16.67;49.82;100361.59;4814351;29;20045;-93
2022/06/29 03:06:19;;;;;;;17.65;5.15;;;;;;;16.46;49.91;100322.03;4843521;23;20063;-93
2022/06/29 03:08:45;;;;;;;20.35;5.05;;;;;;;16.44;49.93;100307.72;4816896;29;20416;-94
2022/06/29 03:11:11;;;;;;;21.70;5.00;;;;;;;16.60;50.48;100314.34;4846914;29;20052;-93
2022/06/29 03:13:37;;;;;;;16.73;4.60;;;;;;;16.82;49.47;100342.91;4829618;29;20299;-93
2022/06/29 03:16:04;;;;;;;11.10;4.87;;;;;;;16.53;50.38;100291.97;4815242;29;20045;-93
2022/06/29 03:18:31;;;;;;;11.73;4.50;;;;;;;16.45;49.56;100284.50;4827129;24;20065;-93
2022/06/29 03:20:57;;;;;;;18.00;4.97;;;;;;;16.49;47.76;100296.53;4817857;29;20698;-93
2022/06/29 03:23:25;;;;;;;19.45;5.40;;;;;;;16.70;48.86;100318.72;4826738;29;20053;-93
2022/06/29 03:25:57;;;;;;;15.50;5.07;;;;;;;16.96;49.48;100353.75;4829739;29;20042;-91
2022/06/29 03:28:25;;;;;;;16.50;5.05;;;;;;;16.55;49.24;100273.09;4815077;29;20149;-92
2022/06/29 03:30:52;;;;;;;18.73;5.72;;;;;;;16.61;49.56;100279.28;4817946;29;20049;-93
2022/06/29 03:33:19;;;;;;;21.20;5.47;;;;;;;16.99;48.64;100334.56;4816438;29;20042;-93
2022/06/29 03:35:55;;;;;;;22.23;5.80;;;;;;;16.93;49.56;100318.50;4833285;29;20049;-94
2022/06/29 03:38:25;;;;;;;21.98;4.88;;;;;;;16.92;49.46;100320.47;4833247;29;20041;-92
2022/06/29 03:40:52;;;;;;;15.68;5.00;;;;;;;16.90;48.56;100320.78;4831875;29;20083;-94
2022/06/29 03:43:19;;;;;;;14.90;4.85;;;;;;;16.82;48.65;100323.56;4832119;29;20054;-94
2022/06/29 03:45:48;;;;;;;13.60;4.75;;;;;;;16.84;48.86;100305.53;4842891;23;20028;-92
2022/06/29 03:48:15;;;;;;;14.40;4.82;;;;;;;16.66;50.02;100281.88;4835841;29;20057;-94
2022/06/29 03:50:44;;;;;;;22.48;5.30;;;;;;;17.09;49.25;100338.91;4835721;29;20052;-93
2022/06/29 03:53:36;;;;;;;24.95;6.13;;;;;;;17.16;48.37;100341.16;4847113;29;20060;-93
2022/06/29 03:56:12;;;;;;;22.67;5.15;;;;;;;16.76;49.08;100287.06;4831461;29;20049;-93
2022/06/29 03:58:39;;;;;;;25.60;6.32;;;;;;;16.86;50.05;100286.69;4816508;29;20106;-93
2022/06/29 04:01:05;;;;;;;24.60;5.57;;;;;;;16.80;50.30;100265.09;4814151;29;20045;-90
2022/06/29 04:03:33;;;;;;;16.63;5.28;;;;;;;16.76;49.84;100253.91;4816864;29;20053;-93
2022/06/29 04:05:59;;;;;;;15.98;5.63;;;;;;;17.24;48.99;100312.66;4829233;29;20057;-92
2022/06/29 04:08:25;;;;;;;21.83;5.50;;;;;;;17.18;49.13;100297.41;4799082;29;20041;-93
2022/06/29 04:10:51;;;;;;;18.93;5.47;;;;;;;17.30;48.60;100303.84;4810267;29;20037;-93
2022/06/29 04:14:17;;;;;;;23.05;5.68;;;;;;;17.58;48.44;100331.00;4849746;23;20142;-93
2022/06/29 04:17:39;;;;;;;16.85;5.65;;;;;;;17.70;48.85;100333.03;4815568;29;20530;-92
2022/06/29 04:22:50;;;;;;;18.05;5.88;;;;;;;17.49;49.48;100283.25;4827664;29;20034;-93
2022/06/29 04:26:07;;;;;;;19.50;4.97;;;;;;;17.87;48.46;100335.72;4830373;29;20136;-94
2022/06/29 04:28:33;;;;;;;48.53;7.13;;;;;;;17.53;48.97;100273.16;4823610;24;20061;-93
2022/06/29 04:31:00;;;;;;;16.00;4.60;;;;;;;17.70;48.67;100294.31;4815835;29;20084;-93
2022/06/29 04:33:26;;;;;;;28.35;6.13;;;;;;;17.80;49.05;100291.19;4816892;29;20298;-93
2022/06/29 04:35:53;;;;;;;24.23;5.60;;;;;;;17.88;48.67;100286.72;4830086;29;20191;-92
2022/06/29 04:38:31;;;;;;;14.30;5.27;;;;;;;17.63;47.13;100247.06;4812196;29;20054;-91
2022/06/29 04:41:22;;;;;;;23.45;5.65;;;;;;;18.27;47.98;100337.97;4813233;29;20050;-92
2022/06/29 04:43:49;;;;;;;19.92;5.53;;;;;;;17.96;47.95;100280.31;4813638;29;20437;-92
2022/06/29 04:46:33;;;;;;;20.88;5.55;;;;;;;18.29;48.31;100308.81;4812240;29;20058;-91
2022/06/29 04:49:02;;;;;;;46.40;6.45;;;;;;;18.28;47.04;100287.84;4811855;29;20045;-91
2022/06/29 04:51:30;;;;;;;38.03;6.13;;;;;;;18.46;47.47;100304.25;4811622;29;20046;-92
2022/06/29 04:53:58;;;;;;;27.70;6.07;;;;;;;18.78;47.17;100344.19;4812672;29;20057;-91
2022/06/29 04:56:33;;;;;;;24.85;5.28;;;;;;;18.53;47.11;100299.78;4808676;29;20117;-92
2022/06/29 04:59:34;;;;;;;22.20;4.85;;;;;;;18.35;46.37;100248.53;4828496;29;20066;-95
2022/06/29 05:02:51;;;;;;;22.63;5.05;;;;;;;19.05;47.17;100353.00;4776317;24;20057;-94
2022/06/29 05:05:42;;;;;;;12.60;4.40;;;;;;;19.15;45.35;100352.56;4830934;29;20045;-94
2022/06/29 05:15:05;;;;;;;19.08;4.70;;;;;;;19.20;44.19;100336.50;4822833;23;20114;-92
2022/06/29 05:17:41;;;;;;;17.73;4.90;;;;;;;19.08;44.18;100313.53;4823789;29;20100;-93
2022/06/29 05:21:06;;;;;;;10.15;4.53;;;;;;;19.39;44.63;100362.84;4867445;23;20072;-94
2022/06/29 05:50:39;;;;;;;10.25;4.97;;;;;;;19.25;47.59;100361.22;6179978;22;20259;31
2022/06/29 06:14:08;;;;;;;20.23;4.95;;;;;;;18.84;42.23;100223.69;6110456;23;20022;-92
2022/06/29 06:20:02;;;;;;;45.13;5.35;;;;;;;19.81;43.31;100323.75;6208724;22;20008;-94
2022/06/29 07:15:01;;;;;;;23.30;3.88;;;;;;;21.14;35.24;100281.72;6159116;23;20243;-95
2022/06/29 07:20:56;;;;;;;24.90;4.63;;;;;;;21.18;32.77;100271.50;6192793;23;20120;31
2022/06/29 07:23:38;;;;;;;29.73;4.93;;;;;;;21.25;35.15;100291.13;6137391;23;20026;-90
2022/06/29 07:26:05;;;;;;;19.65;4.70;;;;;;;21.30;35.94;100276.16;6134841;23;20026;-89
2022/06/29 07:28:32;;;;;;;45.25;5.00;;;;;;;21.01;35.31;100205.97;6156711;23;20137;-94
2022/06/29 07:31:31;;;;;;;54.53;6.80;;;;;;;21.57;34.49;100278.00;6135606;23;20018;-91
2022/06/29 07:33:59;;;;;;;22.92;4.60;;;;;;;21.17;31.89;100232.94;6142938;23;20024;-91
2022/06/29 07:36:31;;;;;;;21.33;4.90;;;;;;;21.51;32.64;100276.66;6116771;23;20052;-92
2022/06/29 07:38:57;;;;;;;85.13;9.95;;;;;;;21.48;32.61;100265.44;6116664;23;20024;-93
2022/06/29 07:41:24;;;;;;;64.18;7.65;;;;;;;21.15;33.62;100222.16;6119593;23;20379;-93
2022/06/29 07:43:50;;;;;;;;;;;;;;;21.60;33.51;100284.00;6143360;23;20024;-92
2022/06/29 07:46:25;;;;;;;26.60;4.63;;;;;;;21.42;33.03;100253.00;6170606;23;20002;-94
2022/06/29 07:48:52;;;;;;;29.10;5.25;;;;;;;21.49;31.93;100239.22;6119175;23;20013;-93
2022/06/29 07:51:19;;;;;;;61.50;6.55;;;;;;;21.48;32.37;100226.50;6118411;23;20020;-92
2022/06/29 07:54:11;;;;;;;12.57;4.30;;;;;;;22.02;33.43;100275.75;6138738;23;20021;-94
2022/06/29 07:56:44;;;;;;;25.42;4.50;;;;;;;21.49;31.77;100190.00;6120067;23;20032;-93
2022/06/29 07:59:10;;;;;;;31.63;4.95;;;;;;;21.97;31.46;100243.44;6117155;23;20037;-92
2022/06/29 08:01:37;;;;;;;28.67;4.78;;;;;;;21.86;32.89;100211.00;6124511;23;20501;-91
2022/06/29 08:04:04;;;;;;;7.75;3.38;;;;;;;21.95;29.46;100217.13;6147810;23;20554;-93
2022/06/29 08:06:40;;;;;;;;;;;;;;;22.27;29.72;100254.00;6122051;23;20064;-94
2022/06/29 08:09:06;;;;;;;21.70;3.80;;;;;;;21.81;30.76;100182.28;6144754;23;19948;-91
2022/06/29 08:11:39;;;;;;;;;;;;;;;22.38;30.99;100245.81;6097944;23;20025;-92
2022/06/29 08:14:49;;;;;;;29.40;4.45;;;;;;;22.46;31.79;100244.78;6170340;23;19923;-93
2022/06/29 08:17:28;;;;;;;20.52;4.55;;;;;;;22.23;32.12;100208.56;6146702;23;20210;-91
2022/06/29 08:19:54;;;;;;;11.85;4.78;;;;;;;22.44;30.39;100228.44;6145298;23;20016;-92
2022/06/29 08:23:14;;;;;;;38.05;5.82;;;;;;;21.67;30.76;100156.16;6117570;23;20026;-95
2022/06/29 08:25:40;;;;;;;20.88;4.88;;;;;;;22.36;32.70;100237.03;6109086;23;20045;-94
2022/06/29 08:28:12;;;;;;;30.05;5.35;;;;;;;22.03;31.74;100169.56;6102486;23;20563;-89
2022/06/29 08:30:38;;;;;;;28.58;5.60;;;;;;;22.32;33.01;100197.97;6145608;23;20021;-88
2022/06/29 08:33:05;;;;;;;39.58;6.78;;;;;;;22.54;32.89;100217.84;6160082;23;20031;-89
2022/06/29 08:35:34;;;;;;;45.63;4.93;;;;;;;22.63;30.64;100235.94;6188446;23;20017;-91
2022/06/29 08:38:02;;;;;;;27.50;5.57;;;;;;;22.27;31.45;100178.78;6166895;23;20020;-92
2022/06/29 08:44:06;;;;;;;10.00;3.85;;;;;;;22.20;30.76;100145.22;6166561;23;20048;-93
2022/06/29 08:46:32;;;;;;;11.30;3.47;;;;;;;22.66;30.69;100200.94;6141290;23;20017;-92
2022/06/29 08:49:16;;;;;;;19.55;4.30;;;;;;;22.54;31.47;100167.69;6139505;23;20024;-92
2022/06/29 08:52:09;;;;;;;20.98;4.78;;;;;;;22.98;31.49;100224.59;6163535;23;20017;-95
2022/06/29 08:54:43;;;;;;;31.48;4.78;;;;;;;23.01;31.23;100217.44;6162375;23;20489;-89
2022/06/29 08:57:10;;;;;;;49.33;6.15;;;;;;;22.80;28.34;100219.88;6141638;23;20024;-93
2022/06/29 09:02:36;;;;;;;16.63;4.20;;;;;;;22.79;30.93;100212.69;6191493;23;20023;-92
2022/06/29 09:06:03;;;;;;;26.50;4.43;;;;;;;22.99;32.39;100211.44;6140881;23;20076;-92
2022/06/29 09:08:36;;;;;;;20.70;3.72;;;;;;;23.14;31.95;100204.09;6177626;23;20051;-93
2022/06/29 09:14:24;;;;;;;12.80;5.00;;;;;;;22.93;32.20;100171.91;6134414;23;20380;-90
2022/06/29 09:17:21;;;;;;;20.58;4.00;;;;;;;22.76;32.55;100133.41;6111065;22;20017;-92
2022/06/29 09:19:49;;;;;;;13.35;3.85;;;;;;;23.31;29.44;100203.56;6191917;23;20029;-90
2022/06/29 09:22:23;;;;;;;28.35;4.60;;;;;;;23.30;31.23;100189.97;6140527;23;20021;-91
2022/06/29 09:24:50;;;;;;;16.13;3.70;;;;;;;23.36;31.07;100180.88;6115400;23;20024;-89
2022/06/29 09:27:19;;;;;;;23.73;4.28;;;;;;;23.34;29.33;100177.66;6138471;23;20025;-93
2022/06/29 09:30:40;;;;;;;21.48;3.80;;;;;;;23.56;30.15;100203.88;6167397;23;20024;-91
2022/06/29 09:33:10;;;;;;;9.60;4.03;;;;;;;23.46;29.81;100168.25;6151698;23;20025;-90
2022/06/29 09:36:17;;;;;;;22.83;4.93;;;;;;;23.67;30.14;100201.19;6141667;23;20013;-94
2022/06/29 09:39:33;;;;;;;19.30;4.22;;;;;;;23.60;28.22;100189.97;6173058;23;20017;-92
2022/06/29 09:42:00;;;;;;;19.67;3.60;;;;;;;23.46;29.34;100171.03;6117316;23;20510;-92
2022/06/29 09:44:36;;;;;;;14.20;3.53;;;;;;;23.28;29.82;100117.81;6166195;23;20107;-94
2022/06/29 09:47:06;;;;;;;16.50;3.22;;;;;;;23.86;29.76;100189.91;6121805;23;20021;-95
2022/06/29 09:49:34;;;;;;;39.70;4.57;;;;;;;23.70;28.93;100152.22;6123854;23;20025;-91
2022/06/29 09:52:52;;;;;;;24.02;4.30;;;;;;;24.00;29.55;100194.84;6143371;23;20021;-94
2022/06/29 09:55:42;;;;;;;16.52;3.75;;;;;;;24.08;28.88;100195.72;6146219;23;20017;-94
2022/06/29 09:58:44;;;;;;;25.85;4.63;;;;;;;23.92;28.71;100151.28;6144991;23;20378;-94
2022/06/29 10:04:00;;;;;;;12.68;3.55;;;;;;;23.79;25.18;100141.56;6115877;23;20097;-91
2022/06/29 10:06:37;;;;;;;9.63;3.55;;;;;;;23.89;26.38;100158.41;6114109;23;20029;-94
2022/06/29 10:13:50;;;;;;;12.70;4.03;;;;;;;23.56;24.49;100099.81;6134232;23;20562;-96
2022/06/29 10:19:21;;;;;;;14.85;3.40;;;;;;;23.83;25.82;100151.56;6195053;23;20025;-95
2022/06/29 10:21:49;;;;;;;18.55;3.65;;;;;;;23.66;26.12;100130.63;6146673;23;20013;-95
2022/06/29 10:24:19;;;;;;;24.15;3.85;;;;;;;23.47;26.00;100111.25;6143833;23;20021;-96
2022/06/29 10:26:47;;;;;;;15.93;4.00;;;;;;;23.59;27.66;100119.38;6168433;23;20021;-95
2022/06/29 10:29:18;;;;;;;18.40;3.85;;;;;;;24.19;27.82;100179.06;6144489;23;20017;-96
2022/06/29 10:31:54;;;;;;;16.67;3.65;;;;;;;24.31;26.39;100159.22;6145104;23;20017;-96
2022/06/29 10:34:32;;;;;;;21.02;4.55;;;;;;;24.23;25.80;100168.72;6143607;23;20021;-96
2022/06/29 10:37:15;;;;;;;11.88;3.28;;;;;;;23.81;23.87;100114.06;6143824;23;20028;-95
2022/06/29 10:40:49;;;;;;;6.95;2.83;;;;;;;23.99;25.20;100168.09;6166834;23;20021;-96
2022/06/29 10:43:20;;;;;;;9.63;3.42;;;;;;;23.63;24.73;100094.28;6139015;23;20017;-92
2022/06/29 10:49:45;;;;;;;10.68;4.05;;;;;;;24.28;25.29;100118.09;6200227;22;20131;-94
2022/06/29 10:52:37;;;;;;;10.57;3.20;;;;;;;24.70;24.89;100156.78;6143904;23;20348;-95
2022/06/29 10:55:04;;;;;;;11.27;3.50;;;;;;;24.41;26.71;100105.44;6143696;23;20424;-94
2022/06/29 10:57:38;;;;;;;12.38;3.55;;;;;;;24.75;26.41;100136.03;6143531;23;20012;-93
2022/06/29 11:00:44;;;;;;;10.65;3.13;;;;;;;25.12;27.16;100154.69;6121794;23;20017;-93
2022/06/29 11:03:29;;;;;;;13.43;3.08;;;;;;;24.95;26.05;100092.59;6085556;23;20030;-94
2022/06/29 11:13:11;;;;;;;11.13;3.03;;;;;;;25.37;25.29;100091.22;6136684;23;20018;-94
2022/06/29 11:15:41;;;;;;;12.10;3.10;;;;;;;25.29;25.23;100068.00;6089172;23;20024;-92
2022/06/29 11:18:56;;;;;;;15.13;3.05;;;;;;;25.75;23.96;100122.53;6136254;23;20071;-94
2022/06/29 11:23:10;;;;;;;9.02;3.13;;;;;;;25.91;21.91;100139.00;6201176;22;20144;-95
2022/06/29 11:25:55;;;;;;;10.70;3.00;;;;;;;25.88;23.20;100132.19;6136182;22;20090;-92
2022/06/29 11:29:02;;;;;;;13.20;3.17;;;;;;;25.96;24.91;100135.81;6141512;23;20032;-96
2022/06/29 11:36:20;;;;;;;28.08;4.05;;;;;;;26.15;22.55;100120.63;6156738;23;20029;-95
2022/06/29 11:39:35;;;;;;;25.55;4.63;;;;;;;26.16;24.60;100099.81;6123331;23;20531;31
2022/06/29 11:49:43;;;;;;;;;;;;;;;;;;;;;
2022/06/29 11:51:30;;;;;;;22.50;5.90;;;;;;;26.41;22.23;100080.97;6144966;23;20017;-96
2022/06/29 11:54:01;;;;;;;8.48;3.30;;;;;;;26.39;22.07;100072.19;6165786;23;20051;-96
2022/06/29 11:56:31;;;;;;;26.50;4.75;;;;;;;26.15;21.71;100012.13;6171863;23;20086;-95
2022/06/29 11:59:02;;;;;;;5.80;3.25;;;;;;;26.30;22.68;100040.16;6144758;23;20016;-93
2022/06/29 12:01:54;;;;;;;25.60;5.57;;;;;;;26.75;23.19;100082.56;6180633;23;20024;-93
2022/06/29 12:04:42;;;;;;;9.98;3.47;;;;;;;26.61;22.59;100030.09;6173510;23;20015;-92
2022/06/29 12:07:18;;;;;;;18.90;5.38;;;;;;;26.69;22.56;100045.72;6173761;23;20020;-94
2022/06/29 12:12:50;;;;;;;27.08;3.50;;;;;;;26.82;24.03;100034.84;6220229;22;19920;-93
2022/06/29 12:15:17;;;;;;;24.85;6.05;;;;;;;26.87;26.05;100015.59;6145935;23;20020;-95
2022/06/29 12:26:06;;;;;;;23.73;4.57;;;;;;;27.02;23.34;100040.78;6165485;23;20025;-96
2022/06/29 12:33:09;;;;;;;14.30;3.42;;;;;;;26.90;24.10;99955.84;6160069;23;20025;-93
2022/06/29 12:36:25;;;;;;;24.83;4.00;;;;;;;27.49;23.11;100030.16;6109509;23;20018;-92
2022/06/29 12:39:18;;;;;;;19.00;4.18;;;;;;;27.66;25.07;100028.44;6087498;23;20359;-94
2022/06/29 12:41:49;;;;;;;20.88;3.72;;;;;;;27.77;23.96;100021.53;6109766;23;20105;-94
2022/06/29 12:47:47;;;;;;;20.27;4.35;;;;;;;27.92;23.81;100013.00;6014366;23;20015;-94
2022/06/29 12:50:16;;;;;;;13.88;4.10;;;;;;;27.49;22.85;99946.69;6136089;23;20036;-96
2022/06/29 12:53:12;;;;;;;22.48;4.00;;;;;;;27.92;22.05;100010.22;6125903;23;20025;-93
2022/06/29 12:55:44;;;;;;;17.48;4.57;;;;;;;27.35;23.03;99943.97;6101314;23;20017;-94
2022/06/29 12:58:11;;;;;;;11.73;4.05;;;;;;;27.60;22.68;99977.50;6125103;23;20444;-92
2022/06/29 13:00:46;;;;;;;30.17;4.82;;;;;;;27.77;22.07;100004.69;6124458;23;20161;-93
2022/06/29 13:03:13;;;;;;;37.53;5.50;;;;;;;27.62;21.87;99956.22;6077356;23;20014;-95
2022/06/29 13:05:58;;;;;;;35.22;5.72;;;;;;;27.75;21.80;100015.53;6139776;23;20276;-92
2022/06/29 13:08:49;;;;;;;17.45;3.90;;;;;;;27.78;21.63;100000.69;6139034;23;20029;-90
2022/06/29 13:11:46;;;;;;;9.20;4.43;;;;;;;27.64;20.58;99995.13;6163519;23;20343;-91
2022/06/29 13:14:15;;;;;;;20.88;3.65;;;;;;;27.47;23.35;99971.56;6189482;23;20075;-91
2022/06/29 13:16:43;;;;;;;20.13;5.10;;;;;;;27.45;23.66;99948.75;6188855;23;20017;-92
2022/06/29 13:19:10;;;;;;;9.68;3.92;;;;;;;27.67;21.77;99999.13;6159651;23;20032;-93
2022/06/29 13:24:47;;;;;;;23.27;4.40;;;;;;;27.16;22.82;99911.66;6140692;23;20041;-94
2022/06/29 13:27:13;;;;;;;19.73;4.05;;;;;;;27.68;23.27;99962.19;6115577;23;20047;-93
2022/06/29 13:34:09;;;;;;;32.25;4.47;;;;;;;27.51;21.92;99969.53;6078278;23;20026;-92
2022/06/29 13:36:54;;;;;;;16.98;4.10;;;;;;;27.24;23.79;99913.19;6099253;23;20029;-92
2022/06/29 13:39:24;;;;;;;16.98;4.60;;;;;;;27.27;23.03;99906.75;6097750;23;20018;-92
2022/06/29 13:41:52;;;;;;;27.88;4.55;;;;;;;27.54;23.06;99935.00;6100857;23;20015;-93
2022/06/29 13:44:21;;;;;;;43.28;5.38;;;;;;;27.65;21.95;99946.19;6074023;23;20085;-95
2022/06/29 13:46:50;;;;;;;27.35;4.68;;;;;;;27.47;23.83;99917.44;6103826;23;20049;-91
2022/06/29 13:49:17;;;;;;;7.82;3.65;;;;;;;27.62;23.68;99925.31;6102623;23;20471;-93
2022/06/29 13:51:57;;;;;;;11.23;3.30;;;;;;;27.78;22.35;99932.44;6118676;23;20025;-93
2022/06/29 13:54:55;;;;;;;9.38;3.80;;;;;;;28.04;21.90;99961.91;6131968;23;20022;-93
2022/06/29 13:57:21;;;;;;;22.83;3.65;;;;;;;27.99;21.60;99932.25;6086721;23;20068;-93
2022/06/29 14:03:48;;;;;;;6.90;3.38;;;;;;;28.07;22.65;99963.88;6157386;23;20037;-92
2022/06/29 14:07:04;;;;;;;7.78;3.35;;;;;;;28.15;22.58;99953.38;6108645;23;20022;-93
2022/06/29 14:09:38;;;;;;;20.00;3.63;;;;;;;28.20;22.73;99950.09;6102547;23;20030;-92
2022/06/29 14:12:20;;;;;;;39.25;4.97;;;;;;;27.83;22.58;99881.41;6102577;23;20026;-93
2022/06/29 14:14:53;;;;;;;13.57;3.58;;;;;;;28.04;23.61;99911.31;6068530;23;20070;-93
2022/06/29 14:18:09;;;;;;;68.32;5.55;;;;;;;28.34;24.19;99942.31;6046108;23;20014;-95
2022/06/29 14:21:28;;;;;;;27.65;4.28;;;;;;;28.35;23.80;99948.75;6072160;23;20500;-94
2022/06/29 14:24:47;;;;;;;19.60;3.58;;;;;;;28.22;23.68;99948.47;6072452;23;20018;-94
2022/06/29 14:27:15;;;;;;;12.80;3.60;;;;;;;28.01;21.49;99904.53;6048699;23;20082;-93
2022/06/29 14:30:03;;;;;;;33.40;4.82;;;;;;;28.45;21.93;99961.13;6071941;23;20019;-92
2022/06/29 14:32:33;;;;;;;22.13;4.03;;;;;;;28.19;23.25;99920.41;6046736;23;20053;-92
2022/06/29 14:38:19;;;;;;;15.95;4.15;;;;;;;28.09;22.34;99906.03;6013452;23;20023;-92
2022/06/29 14:42:14;;;;;;;34.45;5.32;;;;;;;28.38;21.54;99949.88;5990347;23;20369;-92
2022/06/29 14:48:12;;;;;;;29.25;5.53;;;;;;;28.26;20.04;99920.31;5877164;24;20032;-92
2022/06/29 14:50:39;;;;;;;85.93;11.00;;;;;;;28.18;21.82;99907.53;5930764;24;20028;-92
2022/06/29 14:53:19;;;;;;;;;;;;;;;28.37;20.84;99934.25;5955331;24;20019;-93
2022/06/29 14:55:47;;;;;;;39.83;5.82;;;;;;;28.29;21.20;99913.84;5985403;24;19925;-92
2022/06/29 14:58:28;;;;;;;50.40;6.03;;;;;;;27.93;23.62;99882.53;5961720;24;20012;-91
2022/06/29 15:01:23;;;;;;;36.97;5.60;;;;;;;28.36;22.94;99946.72;5910194;24;20054;-95
2022/06/29 15:06:47;;;;;;;24.38;4.55;;;;;;;28.02;22.72;99903.31;6189478;23;20064;-93
2022/06/29 15:10:03;;;;;;;15.30;4.93;;;;;;;28.34;23.19;99939.50;6115546;23;20022;-92
2022/06/29 15:12:37;;;;;;;29.73;4.72;;;;;;;28.23;23.76;99912.72;6085849;23;20036;-93
2022/06/29 15:15:18;;;;;;;15.93;3.72;;;;;;;28.42;22.77;99939.44;6080466;23;20108;-96
2022/06/29 15:17:48;;;;;;;14.48;4.50;;;;;;;28.40;21.98;99925.00;6110578;23;20032;-93
2022/06/29 15:22:50;;;;;;;17.63;4.37;;;;;;;28.24;20.84;99933.97;6130413;23;20026;-92
2022/06/29 15:25:17;;;;;;;13.00;3.90;;;;;;;28.21;21.31;99921.59;6080726;23;20022;-92
2022/06/29 15:27:44;;;;;;;24.40;3.75;;;;;;;27.99;21.56;99894.91;6104190;23;20025;-92
2022/06/29 15:30:11;;;;;;;12.25;3.50;;;;;;;28.09;23.23;99910.88;6080402;23;20017;-94
2022/06/29 15:32:37;;;;;;;13.02;3.72;;;;;;;28.04;22.64;99898.03;6080524;23;20028;-92
2022/06/29 15:40:35;;;;;;;26.77;4.07;;;;;;;27.88;24.00;99880.94;6108558;23;20052;-92
2022/06/29 15:43:01;;;;;;;16.88;3.30;;;;;;;27.92;23.26;99895.00;6109390;23;20277;-93
2022/06/29 15:45:28;;;;;;;11.35;3.70;;;;;;;27.75;23.78;99908.75;6090634;23;19998;-94
2022/06/29 15:47:54;;;;;;;;;;;;;;;27.71;24.04;99933.25;6195617;23;20029;-94